Time;durP1;ratioP1;P1;durP2;ratioP2;P2;SDS_P1;SDS_P2;PMS_P1;PMS_P2;Temp;Humidity;BMP_temperature;BMP_pressure;BME280_temperature;BME280_humidity;BME280_pressure;Samples;Min_cycle;Max_cycle;Signal;HPM_P1;HPM_P2
2024/01/24 06:01:19;;;;;;;4.72;1.30;;;11.70;82.10;;;;;;4437310;23;20149;-78
2024/01/24 06:03:21;;;;;;;4.97;1.30;;;11.80;82.20;;;;;;4102427;29;20050;-77
2024/01/24 06:05:23;;;;;;;4.45;1.17;;;11.80;82.30;;;;;;4102560;29;20110;-79
2024/01/24 06:07:25;;;;;;;4.13;1.20;;;11.80;82.20;;;;;;4102533;29;20055;-78
2024/01/24 06:09:27;;;;;;;4.32;1.17;;;11.90;82.30;;;;;;4102680;29;20051;-78
2024/01/24 06:11:30;;;;;;;4.47;1.08;;;11.90;82.80;;;;;;4102565;29;20047;-77
2024/01/24 06:13:32;;;;;;;4.65;1.33;;;11.90;82.10;;;;;;4102629;29;20044;-78
2024/01/24 06:15:34;;;;;;;4.15;0.90;;;11.90;82.10;;;;;;4103708;29;20051;-77
2024/01/24 06:17:37;;;;;;;4.18;0.90;;;11.90;82.10;;;;;;4106064;29;20071;-79
2024/01/24 06:19:39;;;;;;;4.80;1.00;;;12.00;82.10;;;;;;4104955;29;20106;-78
2024/01/24 06:21:41;;;;;;;3.70;1.00;;;12.00;82.10;;;;;;4103743;29;20114;-79
2024/01/24 06:23:42;;;;;;;3.45;0.90;;;12.00;82.10;;;;;;4106254;29;20074;-79
2024/01/24 06:25:44;;;;;;;5.38;1.20;;;12.10;82.00;;;;;;4104337;28;20056;-79
2024/01/24 06:27:45;;;;;;;2.42;0.90;;;12.00;82.10;;;;;;4105537;29;20055;-79
2024/01/24 06:29:47;;;;;;;3.03;1.10;;;12.10;82.10;;;;;;4103224;29;20489;-79
2024/01/24 06:31:49;;;;;;;3.17;0.90;;;12.10;82.10;;;;;;4102498;29;20055;-78
2024/01/24 06:33:53;;;;;;;2.90;0.88;;;12.20;82.10;;;;;;4104097;29;20055;-78
2024/01/24 06:35:55;;;;;;;4.38;1.08;;;12.10;82.00;;;;;;4102700;29;20080;-79
2024/01/24 06:37:57;;;;;;;3.83;1.10;;;12.10;82.00;;;;;;4101512;29;20509;-79
2024/01/24 06:39:58;;;;;;;16.10;7.07;;;12.10;82.10;;;;;;4101991;29;20051;-79
2024/01/24 06:42:00;;;;;;;16.70;7.05;;;12.20;82.10;;;;;;4101649;29;20481;-80
2024/01/24 06:44:05;;;;;;;4.78;1.40;;;12.10;81.80;;;;;;4101758;29;20129;-79
2024/01/24 06:46:08;;;;;;;4.97;1.20;;;12.10;81.90;;;;;;4102201;29;20449;-78
2024/01/24 06:48:10;;;;;;;3.60;1.10;;;12.20;81.80;;;;;;4101732;29;20086;-79
2024/01/24 06:50:13;;;;;;;5.60;1.10;;;12.20;81.80;;;;;;4101789;29;20051;-78
2024/01/24 06:52:15;;;;;;;4.50;1.10;;;12.20;81.70;;;;;;4101592;29;20059;-79
2024/01/24 06:54:16;;;;;;;3.92;1.15;;;12.20;81.80;;;;;;4101460;29;20047;-79
2024/01/24 06:56:18;;;;;;;4.20;1.10;;;12.20;81.80;;;;;;4101656;29;20134;-79
2024/01/24 06:58:20;;;;;;;4.97;0.90;;;12.20;82.10;;;;;;4101382;29;20480;-79
2024/01/24 07:00:23;;;;;;;4.65;1.10;;;12.20;81.90;;;;;;4101530;29;20055;-77
2024/01/24 07:02:26;;;;;;;3.05;0.88;;;12.30;81.80;;;;;;4102314;28;20055;-79
2024/01/24 07:04:27;;;;;;;2.45;0.95;;;12.20;81.70;;;;;;4104831;29;20053;-79
2024/01/24 07:06:31;;;;;;;5.38;1.27;;;12.20;81.70;;;;;;4105558;29;20325;-79
2024/01/24 07:08:33;;;;;;;3.17;1.00;;;12.30;81.60;;;;;;4109082;29;20055;-79
2024/01/24 07:10:35;;;;;;;2.80;0.90;;;12.30;81.60;;;;;;4107775;29;20044;-80
2024/01/24 07:12:39;;;;;;;11.90;5.15;;;12.30;81.60;;;;;;4101420;29;20051;-80
2024/01/24 07:14:41;;;;;;;5.45;1.50;;;12.30;82.30;;;;;;4101035;29;20533;-79
2024/01/24 07:16:43;;;;;;;3.72;1.30;;;12.30;81.60;;;;;;4101180;29;20047;-77
2024/01/24 07:18:45;;;;;;;3.58;1.20;;;12.30;81.60;;;;;;4101145;29;20187;-76
2024/01/24 07:20:47;;;;;;;3.95;1.10;;;12.30;81.60;;;;;;4101055;29;20050;-80
2024/01/24 07:22:50;;;;;;;4.10;1.13;;;12.40;81.70;;;;;;4101089;29;20051;-78
2024/01/24 07:24:52;;;;;;;2.47;0.90;;;12.40;81.70;;;;;;4101175;29;20090;-79
2024/01/24 07:26:54;;;;;;;2.50;0.90;;;12.40;81.70;;;;;;4100944;29;20135;-78
2024/01/24 07:28:56;;;;;;;4.82;1.45;;;12.40;81.70;;;;;;4100961;29;20051;-80
2024/01/24 07:30:58;;;;;;;3.88;1.10;;;12.40;81.70;;;;;;4100947;29;20055;-80
2024/01/24 07:33:03;;;;;;;2.90;0.90;;;12.40;81.70;;;;;;4101053;29;20476;-80
2024/01/24 07:35:06;;;;;;;3.53;1.13;;;12.40;81.70;;;;;;4101218;29;20050;-78
2024/01/24 07:37:08;;;;;;;3.22;0.88;;;12.50;81.60;;;;;;4100477;28;20309;-78
2024/01/24 07:39:11;;;;;;;3.05;0.90;;;12.40;81.40;;;;;;4100473;29;20492;-79
2024/01/24 07:41:13;;;;;;;2.05;0.80;;;12.50;81.40;;;;;;4100868;29;20072;-78
2024/01/24 07:43:15;;;;;;;2.83;0.90;;;12.50;81.40;;;;;;4100635;29;20086;-80
2024/01/24 07:45:18;;;;;;;2.35;0.80;;;12.50;81.30;;;;;;4100897;29;20481;-80
2024/01/24 07:47:20;;;;;;;2.72;0.82;;;12.50;81.30;;;;;;4100646;29;20055;-80
2024/01/24 07:49:23;;;;;;;2.35;0.93;;;12.50;81.30;;;;;;4100677;29;20047;-79
2024/01/24 07:51:23;;;;;;;3.67;0.90;;;12.50;81.80;;;;;;4100721;29;20044;-78
2024/01/24 07:53:25;;;;;;;3.50;0.90;;;12.60;80.90;;;;;;4100407;29;20070;-79
2024/01/24 07:55:28;;;;;;;3.20;1.00;;;12.60;80.70;;;;;;4100636;29;20047;-80
2024/01/24 07:57:30;;;;;;;2.83;1.00;;;12.60;80.50;;;;;;4100588;29;20051;-79
2024/01/24 07:59:32;;;;;;;3.20;1.00;;;12.60;80.60;;;;;;4100546;29;20047;-79
2024/01/24 08:01:34;;;;;;;3.33;1.10;;;12.60;80.40;;;;;;4081709;29;20056;-79
2024/01/24 08:03:36;;;;;;;2.17;0.90;;;12.60;80.50;;;;;;4067519;29;20104;-79
2024/01/24 08:05:38;;;;;;;2.15;0.80;;;12.60;80.20;;;;;;4066055;29;20144;-78
2024/01/24 08:07:41;;;;;;;3.03;0.98;;;12.60;80.00;;;;;;4066855;29;20056;-79
2024/01/24 08:09:43;;;;;;;2.22;0.80;;;12.70;79.70;;;;;;4066875;29;20052;-78
2024/01/24 08:11:47;;;;;;;3.28;0.80;;;12.70;79.60;;;;;;4066742;29;20052;-79
2024/01/24 08:13:48;;;;;;;1.83;0.50;;;12.80;79.30;;;;;;4066880;29;20052;-77
2024/01/24 08:15:50;;;;;;;2.53;0.70;;;12.80;79.00;;;;;;4066586;29;20167;-77
2024/01/24 08:17:52;;;;;;;1.95;0.60;;;12.80;79.10;;;;;;4066964;29;20084;-77
2024/01/24 08:19:54;;;;;;;2.60;0.75;;;12.80;78.70;;;;;;4066979;29;20080;-79
2024/01/24 08:21:56;;;;;;;1.75;0.60;;;12.80;79.20;;;;;;4064941;29;20048;-79
2024/01/24 08:23:58;;;;;;;1.77;0.65;;;12.80;78.60;;;;;;4066842;29;20052;-79
2024/01/24 08:26:00;;;;;;;2.30;0.75;;;12.90;78.60;;;;;;4066591;29;20343;-78
2024/01/24 08:28:03;;;;;;;1.48;0.50;;;12.90;78.50;;;;;;4066182;29;20048;-77
2024/01/24 08:30:07;;;;;;;2.90;0.70;;;12.90;78.40;;;;;;4066271;29;20084;-78
2024/01/24 08:32:09;;;;;;;2.78;0.77;;;12.90;78.20;;;;;;4064359;29;20101;-80
2024/01/24 08:34:11;;;;;;;2.22;0.57;;;12.90;78.20;;;;;;4066137;29;20080;-79
2024/01/24 08:36:12;;;;;;;1.73;0.70;;;12.90;77.90;;;;;;4066216;29;20131;-77
2024/01/24 08:38:14;;;;;;;2.17;0.60;;;12.90;78.00;;;;;;4066114;29;20114;-80
2024/01/24 08:40:17;;;;;;;2.35;0.70;;;12.90;77.90;;;;;;4065967;29;20060;-80
2024/01/24 08:42:18;;;;;;;3.17;0.70;;;12.90;78.00;;;;;;4066094;29;20104;-80
2024/01/24 08:44:22;;;;;;;2.17;0.70;;;13.00;77.90;;;;;;4066492;29;20119;-79
2024/01/24 08:46:24;;;;;;;1.52;0.52;;;12.90;77.90;;;;;;4066368;29;20087;-77
2024/01/24 08:48:26;;;;;;;0.88;0.40;;;13.00;77.80;;;;;;4066069;29;20080;-78
2024/01/24 08:50:28;;;;;;;1.50;0.50;;;13.00;77.80;;;;;;4069297;29;20485;-80
2024/01/24 08:52:28;;;;;;;1.48;0.50;;;13.00;77.80;;;;;;4069205;29;20059;-76
2024/01/24 08:54:30;;;;;;;0.88;0.32;;;13.00;77.80;;;;;;4069235;29;20060;-80
2024/01/24 08:56:32;;;;;;;1.90;0.60;;;13.00;77.80;;;;;;4069090;29;20439;-79
2024/01/24 08:58:34;;;;;;;3.58;0.80;;;13.00;77.80;;;;;;4069050;29;20433;-78
2024/01/24 09:00:37;;;;;;;2.90;0.90;;;13.00;77.80;;;;;;4068782;29;20059;-78
2024/01/24 09:02:39;;;;;;;1.08;0.43;;;13.00;77.90;;;;;;4069473;29;20482;-79
2024/01/24 09:04:41;;;;;;;1.02;0.45;;;13.00;77.70;;;;;;4068713;29;20048;-77
2024/01/24 09:06:44;;;;;;;1.38;0.40;;;13.00;77.80;;;;;;4068642;29;20052;-80
2024/01/24 09:08:46;;;;;;;1.52;0.50;;;13.00;77.80;;;;;;4072711;29;20084;-79
2024/01/24 09:10:48;;;;;;;2.08;0.60;;;13.10;77.70;;;;;;4072477;29;20454;-78
2024/01/24 09:12:50;;;;;;;1.15;0.40;;;13.10;77.60;;;;;;4069088;29;20107;-78
2024/01/24 09:14:51;;;;;;;1.17;0.43;;;13.10;77.60;;;;;;4069301;29;20553;-79
2024/01/24 09:16:54;;;;;;;1.50;0.63;;;13.20;77.60;;;;;;4073694;29;20052;-77
2024/01/24 09:18:56;;;;;;;1.50;0.50;;;13.20;77.70;;;;;;4068934;29;20135;-77
2024/01/24 09:20:58;;;;;;;1.38;0.50;;;13.20;77.50;;;;;;4068957;29;20112;-79
2024/01/24 09:23:00;;;;;;;1.55;0.50;;;13.20;77.30;;;;;;4068678;29;20115;-80
2024/01/24 09:25:02;;;;;;;1.15;0.50;;;13.20;77.20;;;;;;4068938;29;20052;-79
2024/01/24 09:27:05;;;;;;;1.77;0.40;;;13.30;77.10;;;;;;4068917;29;20088;-80
2024/01/24 09:29:11;;;;;;;1.33;0.45;;;13.30;77.00;;;;;;4068712;29;20538;-80
2024/01/24 09:31:13;;;;;;;1.80;0.65;;;13.20;77.20;;;;;;4068927;29;20413;-78
2024/01/24 09:33:17;;;;;;;1.20;0.40;;;13.30;77.20;;;;;;4066903;29;20139;-78
2024/01/24 09:35:19;;;;;;;1.33;0.50;;;13.30;77.30;;;;;;4068680;29;20455;-77
2024/01/24 09:37:21;;;;;;;1.88;0.40;;;13.30;77.40;;;;;;4068830;29;20206;-77
2024/01/24 09:39:25;;;;;;;1.88;0.52;;;13.30;78.00;;;;;;4068877;29;20803;-76
2024/01/24 09:41:29;;;;;;;1.65;0.50;;;13.30;78.00;;;;;;4068448;29;20056;-76
2024/01/24 09:43:33;;;;;;;1.55;0.50;;;13.30;78.00;;;;;;4068774;29;20048;-79
2024/01/24 09:45:38;;;;;;;2.40;0.47;;;13.30;77.80;;;;;;4068722;29;20494;-78
2024/01/24 09:47:41;;;;;;;0.93;0.40;;;13.30;77.80;;;;;;4068752;29;20056;-79
2024/01/24 09:49:45;;;;;;;1.73;0.60;;;13.30;77.70;;;;;;4068653;29;20044;-78
2024/01/24 09:51:48;;;;;;;1.10;0.50;;;13.30;77.70;;;;;;4068195;29;20055;-76
2024/01/24 09:53:51;;;;;;;1.85;0.82;;;13.30;77.90;;;;;;4068682;29;20048;-78
2024/01/24 09:55:54;;;;;;;0.90;0.35;;;13.30;78.40;;;;;;4068519;29;20099;-77
2024/01/24 09:57:57;;;;;;;1.17;0.40;;;13.30;78.30;;;;;;4068576;29;20116;-80
2024/01/24 09:59:59;;;;;;;2.55;0.50;;;13.30;78.50;;;;;;4068380;29;20052;-79
2024/01/24 10:02:01;;;;;;;0.65;0.30;;;13.40;78.90;;;;;;4068756;29;20096;-78
2024/01/24 10:04:03;;;;;;;1.83;0.73;;;13.30;79.20;;;;;;4069345;29;20056;-79
2024/01/24 10:06:09;;;;;;;1.20;0.38;;;13.30;79.90;;;;;;4071876;29;20056;-78
2024/01/24 10:08:11;;;;;;;2.30;0.98;;;13.30;80.90;;;;;;4069991;29;20514;-78
2024/01/24 10:10:15;;;;;;;0.70;0.30;;;13.30;81.20;;;;;;4066765;29;20048;-77
2024/01/24 10:12:17;;;;;;;1.08;0.40;;;13.20;80.70;;;;;;4068619;29;20052;-79
2024/01/24 10:14:19;;;;;;;1.20;0.40;;;13.30;80.60;;;;;;4068489;29;20055;-80
2024/01/24 10:16:21;;;;;;;0.82;0.30;;;13.30;80.10;;;;;;4069087;29;20135;-78
2024/01/24 10:18:25;;;;;;;1.85;0.32;;;13.30;79.80;;;;;;4069159;29;20048;-80
2024/01/24 10:20:28;;;;;;;1.60;0.40;;;13.30;79.70;;;;;;4069619;29;20497;-79
2024/01/24 10:22:33;;;;;;;1.08;0.30;;;13.40;79.40;;;;;;4070043;29;20056;-78
2024/01/24 10:24:37;;;;;;;1.05;0.30;;;13.40;79.30;;;;;;4069593;29;20184;-80
2024/01/24 10:26:39;;;;;;;2.33;0.43;;;13.40;79.10;;;;;;4069551;29;20109;-79
2024/01/24 10:28:43;;;;;;;0.73;0.25;;;13.40;79.20;;;;;;4070417;29;20550;-79
2024/01/24 10:30:47;;;;;;;2.08;0.40;;;13.50;79.40;;;;;;4070652;29;20048;-79
2024/01/24 10:32:49;;;;;;;2.33;0.40;;;13.50;79.90;;;;;;4070180;29;20048;-77
2024/01/24 10:34:51;;;;;;;2.40;0.60;;;13.50;79.80;;;;;;4070020;29;20056;-78
2024/01/24 10:36:53;;;;;;;2.17;0.70;;;13.60;79.60;;;;;;4070152;29;20104;-77
2024/01/24 10:39:00;;;;;;;1.40;0.40;;;13.60;79.50;;;;;;4069314;29;20060;-77
2024/01/24 10:41:02;;;;;;;0.65;0.22;;;13.60;79.20;;;;;;4069740;29;20044;-80
2024/01/24 10:43:10;;;;;;;1.65;0.40;;;13.60;78.90;;;;;;4070287;29;20142;-78
2024/01/24 10:45:12;;;;;;;0.98;0.40;;;13.60;78.70;;;;;;4069734;29;20489;-79
2024/01/24 10:47:14;;;;;;;1.05;0.22;;;13.70;78.40;;;;;;4070269;29;20075;-77
2024/01/24 10:49:15;;;;;;;0.68;0.22;;;13.60;78.30;;;;;;4070082;29;20052;-77
2024/01/24 10:51:18;;;;;;;1.60;0.68;;;13.60;78.80;;;;;;4070533;29;20044;-80
2024/01/24 10:53:22;;;;;;;0.60;0.20;;;13.60;79.10;;;;;;4070726;29;20051;-81
2024/01/24 10:55:26;;;;;;;0.50;0.20;;;13.60;79.60;;;;;;4070118;29;20507;-79
2024/01/24 10:57:28;;;;;;;0.45;0.20;;;13.60;80.40;;;;;;4070024;29;20471;-79
2024/01/24 10:59:33;;;;;;;1.15;0.40;;;13.60;80.80;;;;;;4070038;29;20058;-78
2024/01/24 11:01:35;;;;;;;0.90;0.40;;;13.60;80.80;;;;;;4070021;29;20059;-78
2024/01/24 11:03:37;;;;;;;2.05;0.20;;;13.60;80.60;;;;;;4069963;29;20086;-77
2024/01/24 11:05:44;;;;;;;0.88;0.20;;;13.60;80.10;;;;;;4073531;29;20051;-78
2024/01/24 11:07:56;;;;;;;0.20;0.10;;;13.60;79.90;;;;;;4085203;29;20501;-78
2024/01/24 11:10:16;;;;;;;0.80;0.30;;;13.60;79.90;;;;;;4084957;29;20047;-79
2024/01/24 11:12:21;;;;;;;1.67;0.40;;;13.60;80.10;;;;;;4069454;29;20055;-80
2024/01/24 11:14:30;;;;;;;0.40;0.10;;;13.60;80.80;;;;;;4069391;29;20052;-79
2024/01/24 11:16:37;;;;;;;0.88;0.30;;;13.50;82.20;;;;;;4069471;29;20054;-79
2024/01/24 11:18:38;;;;;;;0.73;0.20;;;13.40;84.40;;;;;;4069622;29;20048;-79
2024/01/24 11:20:46;;;;;;;0.55;0.17;;;13.20;85.50;;;;;;4069299;29;20091;-80
2024/01/24 11:22:48;;;;;;;1.23;0.20;;;13.20;85.70;;;;;;4069312;29;20139;-78
2024/01/24 11:24:53;;;;;;;1.10;0.30;;;13.10;86.00;;;;;;4069270;29;20084;-79
2024/01/24 11:26:55;;;;;;;1.17;0.40;;;13.10;86.90;;;;;;4069314;29;20055;-80
2024/01/24 11:29:06;;;;;;;0.82;0.30;;;13.00;87.50;;;;;;4069159;29;20063;-79
2024/01/24 11:31:07;;;;;;;1.98;0.30;;;13.00;88.30;;;;;;4069548;29;20048;-80
2024/01/24 11:33:16;;;;;;;0.50;0.10;;;13.00;86.70;;;;;;4068919;29;20055;-78
2024/01/24 11:35:45;;;;;;;1.23;0.30;;;13.10;85.50;;;;;;4069093;29;20060;-79
2024/01/24 11:37:45;;;;;;;0.43;0.13;;;13.20;84.50;;;;;;4055545;29;20048;-78
2024/01/24 11:39:47;;;;;;;1.40;0.50;;;13.30;83.90;;;;;;4069194;29;20078;-78
2024/01/24 11:41:49;;;;;;;1.30;0.30;;;13.30;83.10;;;;;;4069043;29;20107;-80
2024/01/24 11:43:51;;;;;;;1.85;0.60;;;13.40;83.20;;;;;;4068896;29;20052;-79
2024/01/24 11:45:55;;;;;;;1.15;0.25;;;13.40;82.90;;;;;;4069055;29;20104;-81
2024/01/24 11:47:57;;;;;;;1.15;0.40;;;13.40;82.50;;;;;;4069097;29;20044;-81
2024/01/24 11:49:59;;;;;;;0.90;0.38;;;13.40;82.30;;;;;;4071497;29;20060;-77
2024/01/24 11:52:02;;;;;;;0.47;0.20;;;13.40;82.20;;;;;;4071831;29;20104;-76
2024/01/24 11:54:04;;;;;;;0.50;0.17;;;13.50;82.20;;;;;;4068820;29;20052;-77
2024/01/24 11:56:07;;;;;;;1.00;0.30;;;13.50;82.00;;;;;;4069037;29;20048;-80
2024/01/24 11:58:09;;;;;;;0.88;0.32;;;13.50;82.40;;;;;;4068941;29;20187;-76
2024/01/24 12:00:15;;;;;;;0.10;0.10;;;13.40;83.60;;;;;;4067321;29;20418;-79
2024/01/24 12:02:19;;;;;;;1.50;0.20;;;13.20;88.00;;;;;;4096129;29;20412;-79
2024/01/24 12:04:22;;;;;;;0.60;0.20;;;12.90;90.50;;;;;;4098197;29;20055;-78
2024/01/24 12:06:25;;;;;;;1.20;0.20;;;12.80;91.30;;;;;;4098217;29;20043;-80
2024/01/24 12:08:27;;;;;;;0.90;0.10;;;12.80;91.60;;;;;;4097060;28;20544;-79
2024/01/24 12:10:30;;;;;;;0.98;0.22;;;12.60;91.70;;;;;;4098270;29;20055;-78
2024/01/24 12:12:32;;;;;;;1.17;0.30;;;12.60;92.10;;;;;;4098142;29;20516;-76
2024/01/24 12:14:34;;;;;;;2.72;0.40;;;12.60;92.60;;;;;;4098120;29;20079;-76
2024/01/24 12:16:36;;;;;;;1.05;0.35;;;12.40;93.00;;;;;;4097953;29;20055;-76
2024/01/24 12:18:39;;;;;;;1.00;0.32;;;12.40;93.40;;;;;;4096171;29;20469;-76
2024/01/24 12:20:50;;;;;;;1.17;0.45;;;12.30;93.60;;;;;;4097654;29;20044;-79
2024/01/24 12:22:52;;;;;;;1.83;0.63;;;12.30;94.00;;;;;;4097285;29;20102;-78
2024/01/24 12:24:54;;;;;;;1.00;0.40;;;12.30;94.30;;;;;;4097165;29;20051;-80
2024/01/24 12:26:57;;;;;;;0.90;0.40;;;12.40;94.40;;;;;;4098015;29;20144;-79
2024/01/24 12:29:00;;;;;;;0.77;0.40;;;12.30;94.80;;;;;;4097414;29;20102;-78
2024/01/24 12:31:04;;;;;;;1.85;0.50;;;12.30;94.80;;;;;;4097967;29;20498;-78
2024/01/24 12:33:08;;;;;;;0.82;0.40;;;12.30;95.00;;;;;;4097746;29;20086;-80
2024/01/24 12:35:14;;;;;;;2.28;0.70;;;12.20;95.40;;;;;;4097992;29;20054;-79
2024/01/24 12:37:16;;;;;;;1.52;0.52;;;12.20;95.40;;;;;;4097781;29;20054;-78
2024/01/24 12:39:26;;;;;;;2.03;0.75;;;12.30;95.50;;;;;;4097341;29;20098;-78
2024/01/24 12:41:28;;;;;;;2.28;0.57;;;12.30;95.60;;;;;;4097786;29;20078;-80
2024/01/24 12:43:31;;;;;;;1.80;0.60;;;12.30;95.50;;;;;;4097680;29;20405;-78
2024/01/24 12:45:32;;;;;;;1.65;0.60;;;12.30;95.70;;;;;;4100327;29;20055;-78
2024/01/24 12:47:34;;;;;;;3.08;0.63;;;12.30;96.00;;;;;;4098280;29;20406;-80
2024/01/24 12:49:36;;;;;;;2.10;0.73;;;12.30;95.90;;;;;;4106253;29;20086;-79
2024/01/24 12:51:41;;;;;;;2.92;0.85;;;12.30;95.90;;;;;;4103759;29;20047;-77
2024/01/24 12:53:43;;;;;;;1.20;0.53;;;12.30;96.20;;;;;;4098642;29;20047;-80
2024/01/24 12:55:45;;;;;;;2.13;0.50;;;12.20;96.10;;;;;;4098616;29;20043;-78
2024/01/24 12:57:47;;;;;;;2.65;0.70;;;12.00;95.80;;;;;;4098707;29;20465;-78
2024/01/24 12:59:48;;;;;;;1.83;0.47;;;11.80;96.20;;;;;;4103878;29;20470;-78
2024/01/24 13:01:55;;;;;;;1.30;0.43;;;11.60;96.60;;;;;;4107373;29;20055;-79
2024/01/24 13:03:57;;;;;;;3.08;0.50;;;11.60;96.70;;;;;;4099543;29;20492;-79
2024/01/24 13:05:59;;;;;;;1.17;0.40;;;11.60;96.80;;;;;;4098001;29;20059;-79
2024/01/24 13:08:03;;;;;;;1.35;0.30;;;11.50;96.90;;;;;;4098744;29;20043;-78
2024/01/24 13:10:06;;;;;;;1.83;0.40;;;11.40;96.90;;;;;;4097736;29;20051;-80
2024/01/24 13:12:09;;;;;;;0.60;0.30;;;11.50;96.90;;;;;;4097559;29;20051;-77
2024/01/24 13:14:09;;;;;;;1.77;0.65;;;11.40;96.80;;;;;;4097808;29;20102;-77
2024/01/24 13:16:11;;;;;;;2.90;0.93;;;11.40;95.90;;;;;;4097990;29;20051;-79
2024/01/24 13:18:13;;;;;;;5.63;1.30;;;11.40;96.60;;;;;;4096457;29;20087;-80
2024/01/24 13:20:15;;;;;;;3.20;1.10;;;11.40;95.80;;;;;;4097900;29;20051;-80
2024/01/24 13:22:17;;;;;;;4.00;1.10;;;11.40;95.60;;;;;;4097927;29;20066;-78
2024/01/24 13:24:21;;;;;;;2.50;0.90;;;11.40;95.60;;;;;;4097390;29;20059;-78
2024/01/24 13:26:24;;;;;;;3.08;0.90;;;11.40;95.00;;;;;;4097652;29;20154;-80
2024/01/24 13:28:26;;;;;;;7.35;3.13;;;11.40;95.30;;;;;;4097684;29;20051;-79
2024/01/24 13:30:28;;;;;;;3.50;1.10;;;11.40;95.40;;;;;;4097558;29;20047;-79
2024/01/24 13:32:30;;;;;;;5.05;0.52;;;11.40;95.10;;;;;;4097286;29;20055;-77
2024/01/24 13:34:31;;;;;;;3.35;0.50;;;11.40;94.70;;;;;;4097542;29;20051;-80
2024/01/24 13:36:32;;;;;;;2.13;0.50;;;11.40;93.60;;;;;;4098666;28;20051;-79
2024/01/24 13:38:34;;;;;;;2.00;0.40;;;11.50;93.90;;;;;;4100513;29;20051;-78
2024/01/24 13:40:38;;;;;;;1.98;0.40;;;11.50;94.00;;;;;;4100302;29;20051;-79
2024/01/24 13:42:39;;;;;;;3.05;0.50;;;11.50;94.00;;;;;;4100465;29;20055;-80
2024/01/24 13:44:41;;;;;;;3.10;0.70;;;11.50;94.40;;;;;;4100319;29;20089;-78
2024/01/24 13:46:43;;;;;;;3.33;0.70;;;11.50;93.60;;;;;;4100319;29;20469;-80
2024/01/24 13:48:45;;;;;;;4.78;0.70;;;11.40;92.90;;;;;;4100119;29;20093;-79
2024/01/24 13:50:47;;;;;;;3.72;0.93;;;11.40;92.90;;;;;;4100188;29;20500;-80
2024/01/24 13:52:49;;;;;;;7.07;1.00;;;11.40;91.70;;;;;;4100265;29;20460;-78
2024/01/24 13:54:51;;;;;;;3.65;0.80;;;11.40;92.20;;;;;;4100198;29;20055;-79
2024/01/24 13:56:54;;;;;;;4.97;0.68;;;11.40;91.90;;;;;;4099945;29;20047;-78
2024/01/24 13:58:56;;;;;;;4.43;0.73;;;11.40;91.70;;;;;;4100108;29;20130;-80
2024/01/24 14:00:57;;;;;;;2.70;0.50;;;11.50;90.90;;;;;;4099597;29;20110;-78
2024/01/24 14:02:58;;;;;;;5.25;0.60;;;11.50;91.10;;;;;;4100272;29;20201;-78
2024/01/24 14:05:00;;;;;;;3.50;0.55;;;11.50;90.90;;;;;;4099943;29;20108;-81
2024/01/24 14:07:02;;;;;;;3.80;0.60;;;11.60;90.80;;;;;;4099557;29;20055;-80
2024/01/24 14:09:04;;;;;;;1.85;0.50;;;11.70;90.70;;;;;;4099574;29;20055;-80
2024/01/24 14:11:06;;;;;;;2.88;0.77;;;12.70;89.40;;;;;;4099850;29;20070;-79
2024/01/24 14:13:10;;;;;;;2.92;0.40;;;16.30;77.70;;;;;;4099582;29;20047;-77
2024/01/24 14:15:11;;;;;;;2.70;0.50;;;15.40;74.20;;;;;;4099445;28;20110;-78
2024/01/24 14:17:12;;;;;;;1.70;0.50;;;14.40;77.40;;;;;;4099599;29;20051;-78
2024/01/24 14:19:14;;;;;;;2.47;0.40;;;13.50;80.20;;;;;;4099445;29;20051;-79
2024/01/24 14:21:16;;;;;;;3.00;0.60;;;13.20;82.20;;;;;;4100689;29;20047;-80
2024/01/24 14:23:19;;;;;;;3.05;0.75;;;13.00;83.40;;;;;;4101643;29;20055;-79
2024/01/24 14:25:21;;;;;;;3.20;0.60;;;12.80;80.30;;;;;;4100749;29;20059;-77
2024/01/24 14:27:26;;;;;;;3.88;0.63;;;12.60;79.30;;;;;;4102297;29;20048;-79
2024/01/24 14:29:29;;;;;;;4.45;1.23;;;12.50;76.00;;;;;;4104139;29;20051;-77
2024/01/24 14:31:31;;;;;;;3.65;0.98;;;12.40;76.60;;;;;;4105345;29;20086;-78
2024/01/24 14:33:33;;;;;;;8.55;3.50;;;12.30;75.40;;;;;;4100403;29;20058;-82
2024/01/24 14:35:35;;;;;;;5.05;0.93;;;12.20;75.10;;;;;;4104112;29;20051;-78
2024/01/24 14:37:37;;;;;;;5.25;0.77;;;12.20;73.90;;;;;;4099371;29;20106;-80
2024/01/24 14:39:39;;;;;;;3.95;0.80;;;12.10;74.70;;;;;;4099612;29;20489;-80
2024/01/24 14:41:41;;;;;;;5.60;0.95;;;12.10;74.70;;;;;;4099659;29;20106;-79
2024/01/24 14:43:43;;;;;;;2.95;0.60;;;12.00;75.50;;;;;;4099617;29;20082;-79
2024/01/24 14:45:46;;;;;;;6.20;0.90;;;11.90;75.80;;;;;;4099287;29;20059;-79
2024/01/24 14:47:48;;;;;;;3.85;0.85;;;11.90;76.40;;;;;;4099240;28;20086;-78
2024/01/24 14:49:50;;;;;;;3.97;0.80;;;11.90;76.40;;;;;;4099104;29;20059;-80
2024/01/24 14:51:52;;;;;;;3.83;1.10;;;11.90;76.40;;;;;;4099073;29;20083;-79
2024/01/24 14:53:54;;;;;;;5.97;0.73;;;11.90;76.10;;;;;;4099203;29;20499;-78
2024/01/24 14:55:56;;;;;;;1.98;0.43;;;11.90;76.30;;;;;;4099090;29;20106;-80
2024/01/24 14:57:57;;;;;;;7.28;0.70;;;11.90;76.50;;;;;;4099318;29;20108;-79
2024/01/24 14:59:59;;;;;;;5.20;1.05;;;11.90;76.30;;;;;;4099141;29;20059;-79
2024/01/24 15:02:03;;;;;;;7.20;1.85;;;11.90;74.00;;;;;;4097637;29;20066;-79
2024/01/24 15:04:05;;;;;;;4.70;0.40;;;11.90;73.20;;;;;;4099217;29;20126;-80
2024/01/24 15:06:08;;;;;;;4.93;0.75;;;11.90;73.90;;;;;;4099425;29;20047;-78
2024/01/24 15:08:10;;;;;;;3.97;1.00;;;12.20;73.80;;;;;;4098900;29;20043;-78
2024/01/24 15:10:11;;;;;;;5.78;0.90;;;12.20;73.90;;;;;;4099822;29;20095;-80
2024/01/24 15:12:12;;;;;;;3.60;0.65;;;12.10;74.00;;;;;;4099098;29;20473;-81
2024/01/24 15:14:14;;;;;;;3.42;0.70;;;12.00;73.90;;;;;;4095533;28;20051;-80
2024/01/24 15:16:17;;;;;;;5.82;0.65;;;11.90;73.90;;;;;;4101519;28;20051;-82
2024/01/24 15:18:20;;;;;;;2.80;0.90;;;11.80;74.10;;;;;;4100377;29;20062;-79
2024/01/24 15:20:22;;;;;;;3.25;0.68;;;11.80;74.30;;;;;;4096594;28;20051;-77
2024/01/24 15:22:23;;;;;;;4.95;0.88;;;11.80;75.10;;;;;;4100063;28;20059;-79
2024/01/24 15:24:25;;;;;;;2.95;0.60;;;11.70;75.40;;;;;;4098144;29;20051;-81
2024/01/24 15:26:27;;;;;;;6.72;0.68;;;11.70;75.00;;;;;;4098078;29;20062;-80
2024/01/24 15:28:29;;;;;;;4.32;0.90;;;11.70;75.10;;;;;;4098895;29;20504;-79
2024/01/24 15:30:30;;;;;;;5.18;0.80;;;11.70;75.60;;;;;;4098324;29;20439;-77
2024/01/24 15:32:32;;;;;;;4.25;0.57;;;11.70;76.00;;;;;;4098477;29;20102;-78
2024/01/24 15:34:35;;;;;;;3.40;0.93;;;11.70;75.40;;;;;;4098714;29;20125;-82
2024/01/24 15:36:37;;;;;;;2.53;0.73;;;11.70;76.10;;;;;;4098660;29;20404;-80
2024/01/24 15:38:39;;;;;;;5.15;1.05;;;11.70;76.70;;;;;;4098684;29;20105;-80
2024/01/24 15:40:41;;;;;;;3.92;1.00;;;11.70;77.40;;;;;;4098789;29;20464;-79
2024/01/24 15:42:43;;;;;;;3.90;0.80;;;11.70;76.60;;;;;;4098558;29;20055;-79
2024/01/24 15:44:45;;;;;;;2.35;0.70;;;11.80;75.50;;;;;;4099098;29;20106;-80
2024/01/24 15:46:47;;;;;;;4.40;1.02;;;11.80;74.00;;;;;;4097723;29;20053;-80
2024/01/24 15:48:49;;;;;;;5.38;1.15;;;11.70;72.90;;;;;;4098120;29;20867;-78
2024/01/24 15:50:52;;;;;;;4.95;0.85;;;11.70;73.60;;;;;;4097814;29;20047;-79
2024/01/24 15:52:54;;;;;;;6.75;1.30;;;11.70;72.90;;;;;;4098377;29;20133;-79
2024/01/24 15:54:56;;;;;;;5.38;0.90;;;11.60;73.40;;;;;;4098349;29;20051;-79
2024/01/24 15:56:58;;;;;;;5.32;1.90;;;11.60;74.10;;;;;;4098482;29;20493;-80
2024/01/24 15:58:59;;;;;;;6.25;2.00;;;11.60;74.40;;;;;;4093153;28;20102;-79
2024/01/24 16:01:01;;;;;;;4.97;1.20;;;11.60;75.10;;;;;;4088555;28;20395;-78
2024/01/24 16:03:03;;;;;;;4.43;1.08;;;11.60;74.60;;;;;;4066959;29;20048;-78
2024/01/24 16:05:18;;;;;;;4.90;0.90;;;11.60;73.10;;;;;;4067448;29;20105;-79
2024/01/24 16:07:21;;;;;;;5.50;0.97;;;11.50;72.70;;;;;;4067997;29;20838;-79
2024/01/24 16:09:24;;;;;;;6.22;0.90;;;11.50;72.50;;;;;;4067145;29;20304;-80
2024/01/24 16:11:26;;;;;;;5.28;0.90;;;11.50;72.00;;;;;;4067243;29;20062;-78
2024/01/24 16:13:28;;;;;;;6.00;1.20;;;11.40;72.50;;;;;;4066564;29;20051;-79
2024/01/24 16:15:30;;;;;;;6.20;1.10;;;11.50;72.20;;;;;;4069015;29;20060;-78
2024/01/24 16:17:31;;;;;;;4.63;1.02;;;11.40;72.80;;;;;;4070140;29;20111;-79
2024/01/24 16:19:33;;;;;;;7.28;1.02;;;11.40;72.60;;;;;;4066486;29;20055;-77
2024/01/24 16:21:35;;;;;;;6.95;1.00;;;11.40;72.60;;;;;;4067236;29;20060;-78
2024/01/24 16:23:39;;;;;;;6.55;1.33;;;11.30;72.90;;;;;;4066934;29;20101;-79
2024/01/24 16:25:40;;;;;;;4.57;1.00;;;11.40;72.60;;;;;;4066497;29;20052;-79
2024/01/24 16:27:41;;;;;;;5.93;0.90;;;11.40;73.10;;;;;;4067008;29;20044;-78
2024/01/24 16:29:43;;;;;;;4.72;1.05;;;11.30;73.00;;;;;;4066709;29;20507;-80
2024/01/24 16:31:45;;;;;;;5.03;1.35;;;11.30;73.20;;;;;;4066791;29;20146;-79
2024/01/24 16:33:48;;;;;;;5.25;1.20;;;11.30;73.00;;;;;;4066981;29;20052;-78
2024/01/24 16:35:48;;;;;;;5.50;1.15;;;11.30;73.20;;;;;;4067007;29;20463;-80
2024/01/24 16:37:51;;;;;;;6.63;1.40;;;11.30;72.60;;;;;;4066558;29;20060;-78